Time;durP1;ratioP1;P1;durP2;ratioP2;P2;SDS_P1;SDS_P2;PMS_P1;PMS_P2;Temp;Humidity;BMP_temperature;BMP_pressure;BME280_temperature;BME280_humidity;BME280_pressure;Samples;Min_cycle;Max_cycle;Signal;HPM_P1;HPM_P2
2022/09/04 00:00:09;;;;;;;3.58;2.10;;;17.80;99.90;;;;;;5011460;28;20485;-77
2022/09/04 00:02:54;;;;;;;4.85;1.83;;;17.90;99.90;;;;;;5012521;28;20034;-78
2022/09/04 00:05:28;;;;;;;3.38;1.85;;;17.90;99.90;;;;;;4996220;28;20023;-78
2022/09/04 00:08:03;;;;;;;6.60;1.77;;;17.90;99.90;;;;;;5007153;28;20018;-77
2022/09/04 00:10:47;;;;;;;5.55;1.40;;;17.80;99.90;;;;;;5002990;28;20026;-78
2022/09/04 00:13:37;;;;;;;3.70;1.65;;;17.80;99.90;;;;;;4995785;28;20033;-81
2022/09/04 00:16:12;;;;;;;2.30;1.75;;;17.80;99.90;;;;;;5022285;28;20046;-80
2022/09/04 00:18:47;;;;;;;6.57;1.80;;;17.80;99.90;;;;;;5032991;28;20485;-82
2022/09/04 00:21:28;;;;;;;5.30;2.03;;;17.70;99.90;;;;;;5031088;28;20026;-80
2022/09/04 00:23:59;;;;;;;2.88;1.40;;;17.80;99.90;;;;;;5010473;28;20034;-76
2022/09/04 00:26:51;;;;;;;2.05;1.60;;;17.80;99.90;;;;;;5012365;28;20030;-76
2022/09/04 00:29:17;;;;;;;6.43;1.40;;;17.80;99.90;;;;;;5010219;28;20471;-75
2022/09/04 00:31:51;;;;;;;3.33;1.52;;;17.80;99.90;;;;;;4991485;28;20077;-75
2022/09/04 00:34:40;;;;;;;3.10;1.60;;;17.80;99.90;;;;;;4999859;28;20022;-75
2022/09/04 00:37:10;;;;;;;2.95;1.80;;;17.80;99.90;;;;;;5011685;28;20044;-76
2022/09/04 00:39:43;;;;;;;3.45;1.48;;;17.80;99.90;;;;;;4991885;28;20100;-75
2022/09/04 00:42:26;;;;;;;3.42;1.70;;;17.80;99.90;;;;;;4990602;28;20166;-75
2022/09/04 00:45:06;;;;;;;2.95;1.25;;;17.80;99.90;;;;;;4992473;28;20101;-75
2022/09/04 00:48:05;;;;;;;4.50;1.98;;;17.80;99.90;;;;;;5005869;28;20084;-76
2022/09/04 00:50:45;;;;;;;2.85;1.98;;;17.70;99.90;;;;;;5011061;28;20022;-75
2022/09/04 00:53:54;;;;;;;4.75;1.75;;;17.70;99.90;;;;;;5008650;28;20548;-75
2022/09/04 00:56:36;;;;;;;1.73;1.52;;;17.70;99.90;;;;;;4980460;28;20045;-76
2022/09/04 00:59:21;;;;;;;5.15;1.70;;;17.70;99.90;;;;;;5005252;28;20030;-76
2022/09/04 01:01:47;;;;;;;2.20;1.42;;;17.70;99.90;;;;;;5010171;28;20018;-75
2022/09/04 01:04:35;;;;;;;4.75;1.70;;;17.70;99.90;;;;;;5013664;28;20076;-76
2022/09/04 01:07:06;;;;;;;3.03;1.70;;;17.50;99.90;;;;;;5013417;28;20187;-76
2022/09/04 01:09:35;;;;;;;3.28;1.48;;;17.50;99.90;;;;;;5009093;28;20022;-76
2022/09/04 01:12:31;;;;;;;5.35;1.50;;;17.50;99.90;;;;;;5013989;28;20033;-76
2022/09/04 01:15:16;;;;;;;2.72;1.40;;;17.50;99.90;;;;;;4962329;28;1138492;-76
2022/09/04 01:17:59;;;;;;;4.35;1.63;;;17.50;99.90;;;;;;5011925;28;20068;-75
2022/09/04 01:20:52;;;;;;;2.17;1.40;;;17.50;99.90;;;;;;5009761;28;20478;-76
2022/09/04 01:23:55;;;;;;;2.45;1.40;;;17.50;99.90;;;;;;5015758;28;20033;-77
2022/09/04 01:26:29;;;;;;;4.88;1.92;;;17.40;99.90;;;;;;5009354;28;20036;-77
2022/09/04 01:29:23;;;;;;;6.10;1.80;;;17.40;99.90;;;;;;5015671;28;20109;-76
2022/09/04 01:32:06;;;;;;;8.80;1.85;;;17.40;99.90;;;;;;5013344;28;20026;-76
2022/09/04 01:34:58;;;;;;;4.95;1.60;;;17.30;99.90;;;;;;5012771;28;20113;-75
2022/09/04 01:37:27;;;;;;;;;;;17.40;99.90;;;;;;5015677;28;20160;-76
2022/09/04 01:40:07;;;;;;;3.20;1.40;;;17.30;99.90;;;;;;5012618;28;19928;-77
2022/09/04 01:42:56;;;;;;;8.10;1.80;;;17.30;99.90;;;;;;5010415;28;20121;-76
2022/09/04 01:46:00;;;;;;;4.93;1.90;;;17.30;99.90;;;;;;5002276;28;20034;-76
2022/09/04 01:48:43;;;;;;;3.88;1.85;;;17.30;99.90;;;;;;5016670;28;20143;-76
2022/09/04 01:51:39;;;;;;;5.68;1.60;;;17.30;99.90;;;;;;5014855;28;20025;-76
2022/09/04 01:54:31;;;;;;;3.70;1.60;;;17.10;99.90;;;;;;5014580;28;20375;-76
2022/09/04 01:57:04;;;;;;;2.70;1.95;;;17.20;99.90;;;;;;5015428;28;20459;-77
2022/09/04 01:59:47;;;;;;;6.45;1.90;;;17.20;99.90;;;;;;5016079;28;20033;-77
2022/09/04 02:02:33;;;;;;;3.72;1.95;;;17.20;99.90;;;;;;5015576;28;20061;-77
2022/09/04 02:05:04;;;;;;;5.78;1.50;;;17.30;99.90;;;;;;5015923;28;20105;-76
2022/09/04 02:07:38;;;;;;;4.68;1.83;;;17.20;99.90;;;;;;5015385;28;20056;-76
2022/09/04 02:10:30;;;;;;;4.45;1.63;;;17.20;99.90;;;;;;5014714;28;20382;-76
2022/09/04 02:13:19;;;;;;;3.30;1.90;;;17.20;99.90;;;;;;4998531;28;20042;-76
2022/09/04 02:16:13;;;;;;;3.17;1.88;;;17.20;99.90;;;;;;5015920;28;20056;-75
2022/09/04 02:19:21;;;;;;;3.80;1.77;;;17.10;99.90;;;;;;5015132;28;20037;-74
2022/09/04 02:21:54;;;;;;;3.28;1.48;;;17.10;99.90;;;;;;5013010;28;20030;-75
2022/09/04 02:24:32;;;;;;;2.67;1.42;;;17.10;99.90;;;;;;5015309;28;20030;-75
2022/09/04 02:27:05;;;;;;;4.05;1.92;;;17.10;99.90;;;;;;5015583;28;20022;-74
2022/09/04 02:29:52;;;;;;;6.07;1.90;;;17.00;99.90;;;;;;5014599;28;20030;-75
2022/09/04 02:33:01;;;;;;;3.15;1.30;;;17.10;99.90;;;;;;5013831;28;20034;-75
2022/09/04 02:35:33;;;;;;;4.38;2.10;;;17.10;99.90;;;;;;5014425;28;20026;-75
2022/09/04 02:38:04;;;;;;;2.58;1.70;;;17.00;99.90;;;;;;5013770;28;20030;-76
2022/09/04 02:40:36;;;;;;;3.78;1.50;;;17.00;99.90;;;;;;5014006;28;20026;-75
2022/09/04 02:43:02;;;;;;;5.90;1.80;;;17.00;99.90;;;;;;5013549;28;20038;-75
2022/09/04 02:45:56;;;;;;;3.45;2.20;;;17.00;99.90;;;;;;5015058;28;20049;-75
2022/09/04 02:48:51;;;;;;;3.88;1.90;;;16.90;99.90;;;;;;5014450;28;20041;-76
2022/09/04 02:51:41;;;;;;;5.22;2.05;;;17.00;99.90;;;;;;4995575;28;20033;-75
2022/09/04 02:54:38;;;;;;;2.35;1.80;;;17.10;99.90;;;;;;5014605;28;20036;-76
2022/09/04 02:57:23;;;;;;;2.92;1.80;;;17.10;99.90;;;;;;5014779;28;20056;-76
2022/09/04 03:00:13;;;;;;;2.83;1.73;;;17.10;99.90;;;;;;5015010;28;20022;-76
2022/09/04 03:03:19;;;;;;;6.35;2.15;;;17.10;99.90;;;;;;5014028;28;20034;-75
2022/09/04 03:05:55;;;;;;;2.55;1.95;;;17.10;99.90;;;;;;4973859;28;20106;-75
2022/09/04 03:08:40;;;;;;;3.15;1.70;;;17.10;99.90;;;;;;5006948;28;20042;-76
2022/09/04 03:11:19;;;;;;;4.47;2.22;;;17.10;99.90;;;;;;5013320;28;20036;-76
2022/09/04 03:13:55;;;;;;;4.03;2.25;;;17.10;99.90;;;;;;5013679;28;20033;-75
2022/09/04 03:16:26;;;;;;;4.78;2.00;;;17.10;99.90;;;;;;5013142;28;20115;-75
2022/09/04 03:18:57;;;;;;;6.13;1.80;;;17.00;99.90;;;;;;5013709;28;20072;-75
2022/09/04 03:21:30;;;;;;;;;;;17.00;99.90;;;;;;5015596;28;20109;-78
2022/09/04 03:24:21;;;;;;;3.97;1.80;;;17.00;99.90;;;;;;5013344;28;19917;-78
2022/09/04 03:26:53;;;;;;;4.95;1.95;;;16.90;99.90;;;;;;5014257;28;20030;-77
2022/09/04 03:29:41;;;;;;;3.45;1.70;;;17.00;99.90;;;;;;5013383;28;20028;-75
2022/09/04 03:32:19;;;;;;;2.50;1.85;;;17.00;99.90;;;;;;5014067;28;20496;-76
2022/09/04 03:34:54;;;;;;;3.42;2.15;;;16.90;99.90;;;;;;5014119;28;20034;-77
2022/09/04 03:37:31;;;;;;;3.63;2.03;;;16.90;99.90;;;;;;5013135;28;20026;-77
2022/09/04 03:40:22;;;;;;;2.90;1.80;;;16.90;99.90;;;;;;5013688;28;20048;-76
2022/09/04 03:43:22;;;;;;;2.70;1.40;;;16.90;99.90;;;;;;5014376;28;20117;-76
2022/09/04 03:46:03;;;;;;;2.33;1.92;;;17.00;99.90;;;;;;5012571;28;20080;-75
2022/09/04 03:48:50;;;;;;;3.35;1.88;;;17.00;99.90;;;;;;5012591;28;20356;-75
2022/09/04 03:51:34;;;;;;;7.93;1.88;;;17.10;99.90;;;;;;5013267;28;20121;-76
2022/09/04 03:54:14;;;;;;;5.70;3.05;;;17.10;99.90;;;;;;5013369;28;20030;-78
2022/09/04 03:56:51;;;;;;;4.82;2.33;;;17.10;99.90;;;;;;5013565;28;20080;-76
2022/09/04 03:59:49;;;;;;;2.60;1.80;;;17.10;99.90;;;;;;5012839;28;20030;-77
2022/09/04 04:02:39;;;;;;;5.82;2.20;;;17.10;99.90;;;;;;4987325;28;20095;-76
2022/09/04 04:05:23;;;;;;;2.90;1.92;;;17.00;99.90;;;;;;5012694;28;20030;-76
2022/09/04 04:08:04;;;;;;;2.92;1.70;;;16.90;99.90;;;;;;5014429;28;20467;-75
2022/09/04 04:10:57;;;;;;;2.13;1.67;;;16.90;99.90;;;;;;5012782;28;20065;-75
2022/09/04 04:13:56;;;;;;;2.72;1.80;;;16.80;99.90;;;;;;5012396;28;20637;-76
2022/09/04 04:16:41;;;;;;;3.45;1.73;;;16.80;99.90;;;;;;5013367;28;20057;-76
2022/09/04 04:19:20;;;;;;;5.97;1.75;;;16.80;99.90;;;;;;5013022;28;20033;-76
2022/09/04 04:22:07;;;;;;;2.55;1.65;;;16.80;99.90;;;;;;5012718;28;20539;-76
2022/09/04 04:24:37;;;;;;;3.47;1.85;;;16.70;99.90;;;;;;5012832;28;20032;-76
2022/09/04 04:27:40;;;;;;;3.63;1.70;;;16.70;99.90;;;;;;5013376;28;20116;-76
2022/09/04 04:30:52;;;;;;;4.80;1.92;;;16.70;99.90;;;;;;5012937;28;20149;-76
2022/09/04 04:33:42;;;;;;;3.65;2.10;;;16.70;99.90;;;;;;5012459;28;20038;-76
2022/09/04 04:36:31;;;;;;;2.67;1.85;;;16.70;99.90;;;;;;5011557;28;20092;-76
2022/09/04 04:39:15;;;;;;;3.65;1.65;;;16.70;99.90;;;;;;5012721;28;20181;-77
2022/09/04 04:42:19;;;;;;;2.70;1.58;;;16.80;99.90;;;;;;5012744;28;20033;-76
2022/09/04 04:48:27;;;;;;;4.03;1.98;;;16.90;99.90;;;;;;5013247;28;20104;-77
2022/09/04 04:51:25;;;;;;;2.38;1.70;;;16.90;99.90;;;;;;5012973;28;20415;-77
2022/09/04 04:54:12;;;;;;;8.20;2.33;;;16.90;99.90;;;;;;4987858;28;20542;-77
2022/09/04 04:56:48;;;;;;;4.40;2.08;;;16.90;99.90;;;;;;5014193;28;20022;-78
2022/09/04 05:00:05;;;;;;;2.47;1.90;;;16.80;99.90;;;;;;5012556;28;20141;-78
2022/09/04 05:02:54;;;;;;;4.82;2.55;;;16.90;99.90;;;;;;4971712;28;20031;-76
2022/09/04 05:05:46;;;;;;;2.88;2.28;;;16.80;99.90;;;;;;4955414;28;20049;-75
2022/09/04 05:08:30;;;;;;;5.22;1.92;;;16.80;99.90;;;;;;4955536;28;20045;-75
2022/09/04 05:11:09;;;;;;;5.05;2.55;;;16.80;99.90;;;;;;4971913;28;20089;-75
2022/09/04 05:13:55;;;;;;;2.88;2.28;;;16.80;99.90;;;;;;4955210;28;20046;-75
2022/09/04 05:16:33;;;;;;;3.95;2.35;;;16.80;99.90;;;;;;4954647;28;20139;-75
2022/09/04 05:19:09;;;;;;;4.78;2.15;;;16.80;99.90;;;;;;4955857;28;20022;-76
2022/09/04 05:22:00;;;;;;;3.42;2.10;;;16.80;99.90;;;;;;4972318;28;20105;-76
2022/09/04 05:24:57;;;;;;;3.72;2.05;;;16.70;99.90;;;;;;4954870;28;20041;-76
2022/09/04 05:27:38;;;;;;;4.07;2.42;;;16.70;99.90;;;;;;4955005;28;20035;-76
2022/09/04 05:30:20;;;;;;;3.80;2.17;;;16.70;99.90;;;;;;4955685;28;20133;-75
2022/09/04 05:32:55;;;;;;;3.97;2.15;;;16.60;99.90;;;;;;4984889;28;20049;-75
2022/09/04 05:36:01;;;;;;;4.35;2.20;;;16.60;99.90;;;;;;5011213;28;20026;-75
2022/09/04 05:38:37;;;;;;;5.30;2.45;;;16.70;99.90;;;;;;5012940;28;20030;-75
2022/09/04 05:41:11;;;;;;;3.42;2.60;;;16.70;99.90;;;;;;5012053;28;20026;-76
2022/09/04 05:44:32;;;;;;;4.63;2.17;;;16.80;99.90;;;;;;5012104;28;20030;-75
2022/09/04 05:47:28;;;;;;;3.75;2.15;;;16.80;99.90;;;;;;4957196;28;20181;-76
2022/09/04 05:50:11;;;;;;;4.90;2.60;;;16.90;99.90;;;;;;5016819;28;20026;-75
2022/09/04 05:52:40;;;;;;;3.30;2.40;;;16.90;99.90;;;;;;5016464;28;20057;-76
2022/09/04 05:55:21;;;;;;;6.43;3.05;;;17.00;99.90;;;;;;5016510;28;20045;-75
2022/09/04 05:58:01;;;;;;;4.55;2.60;;;17.00;99.90;;;;;;5016285;28;20378;-76
2022/09/04 06:00:37;;;;;;;3.67;2.70;;;17.00;99.90;;;;;;5015724;28;20404;-75
2022/09/04 06:03:37;;;;;;;5.30;2.55;;;17.00;99.90;;;;;;5015980;28;20475;-75
2022/09/04 06:06:42;;;;;;;3.78;2.67;;;17.10;99.90;;;;;;5016349;28;20037;-75
2022/09/04 06:09:26;;;;;;;4.80;2.53;;;17.10;99.90;;;;;;4958207;28;20037;-75
2022/09/04 06:11:54;;;;;;;4.32;2.70;;;17.10;99.90;;;;;;5009628;28;20061;-75
2022/09/04 06:14:38;;;;;;;6.43;3.10;;;17.10;99.90;;;;;;5015128;28;20387;-76
2022/09/04 06:17:32;;;;;;;4.38;3.13;;;17.20;99.90;;;;;;5015252;28;20049;-75
2022/09/04 06:20:14;;;;;;;3.95;3.00;;;17.20;99.90;;;;;;5015038;28;20026;-76
2022/09/04 06:22:50;;;;;;;;;;;17.30;99.90;;;;;;5015129;28;20034;-76
2022/09/04 06:25:34;;;;;;;4.43;3.20;;;17.30;99.90;;;;;;5015164;28;20477;-76
2022/09/04 06:28:28;;;;;;;5.82;3.20;;;17.30;99.90;;;;;;5015426;28;20058;-75
2022/09/04 06:31:08;;;;;;;5.38;3.25;;;17.30;99.90;;;;;;5015514;28;20037;-75
2022/09/04 06:34:06;;;;;;;4.80;3.05;;;17.40;99.90;;;;;;5013862;28;20038;-75
2022/09/04 06:36:46;;;;;;;4.65;3.78;;;17.40;99.90;;;;;;5014062;28;20283;-76
2022/09/04 06:39:18;;;;;;;6.78;3.33;;;17.40;99.90;;;;;;5015275;28;20026;-76
2022/09/04 06:42:12;;;;;;;6.53;3.70;;;17.40;99.90;;;;;;5014645;28;20061;-76
2022/09/04 06:44:46;;;;;;;7.22;3.58;;;17.50;99.90;;;;;;5015782;28;20498;-76
2022/09/04 06:47:35;;;;;;;4.93;3.45;;;17.60;99.90;;;;;;5014934;28;20041;-76
2022/09/04 06:50:04;;;;;;;6.35;3.47;;;17.60;99.90;;;;;;5014377;28;20026;-76
2022/09/04 06:52:39;;;;;;;5.50;3.63;;;17.60;99.90;;;;;;5014485;28;20190;-76
2022/09/04 06:55:24;;;;;;;4.80;3.45;;;17.70;99.90;;;;;;5014180;28;20109;-76
2022/09/04 06:58:04;;;;;;;7.18;3.60;;;17.70;99.90;;;;;;5013039;28;20076;-76
2022/09/04 07:00:41;;;;;;;8.50;3.83;;;17.80;99.90;;;;;;5013883;28;20026;-77
2022/09/04 07:03:14;;;;;;;5.75;3.50;;;17.80;99.90;;;;;;5014191;28;20083;-78
2022/09/04 07:06:36;;;;;;;8.25;3.63;;;17.80;99.90;;;;;;5014607;28;20026;-78
2022/09/04 07:09:13;;;;;;;5.32;3.90;;;17.90;99.90;;;;;;4957261;28;20535;-75
2022/09/04 07:11:48;;;;;;;6.90;4.43;;;18.00;99.90;;;;;;4973491;28;20054;-75
2022/09/04 07:14:46;;;;;;;6.82;4.45;;;18.00;99.90;;;;;;5002717;28;20042;-76
2022/09/04 07:17:32;;;;;;;9.93;4.25;;;18.10;99.90;;;;;;5013489;28;20037;-77
2022/09/04 07:20:28;;;;;;;10.43;4.38;;;18.10;99.90;;;;;;5013773;28;20025;-76
2022/09/04 07:23:26;;;;;;;6.30;3.92;;;18.20;99.90;;;;;;5015070;28;20030;-75
2022/09/04 07:26:37;;;;;;;5.10;3.20;;;18.20;99.90;;;;;;5013364;28;20033;-77
2022/09/04 07:29:28;;;;;;;4.60;3.20;;;18.30;99.90;;;;;;5015156;28;20038;-76
2022/09/04 07:32:14;;;;;;;4.88;3.78;;;18.40;99.90;;;;;;5014850;28;20022;-77
2022/09/04 07:34:54;;;;;;;7.03;3.92;;;18.40;99.90;;;;;;5013788;28;20029;-77
2022/09/04 07:37:30;;;;;;;4.72;3.15;;;18.50;99.90;;;;;;5013905;28;20032;-76
2022/09/04 07:40:08;;;;;;;3.97;3.15;;;18.60;99.90;;;;;;5013883;28;20493;-78
2022/09/04 07:42:38;;;;;;;4.85;3.30;;;18.60;99.90;;;;;;5014409;28;20026;-78
2022/09/04 07:45:23;;;;;;;5.28;3.30;;;18.60;99.90;;;;;;5014000;28;20026;-78
2022/09/04 07:48:03;;;;;;;6.20;3.47;;;18.70;99.90;;;;;;5013569;28;20044;-76
2022/09/04 07:50:38;;;;;;;5.45;3.15;;;18.70;99.90;;;;;;5013310;28;20406;-77
2022/09/04 07:53:13;;;;;;;5.20;3.03;;;18.80;99.90;;;;;;5013665;28;20052;-78
2022/09/04 07:55:58;;;;;;;4.53;2.90;;;18.90;99.90;;;;;;5013719;28;20467;-77
2022/09/04 07:58:39;;;;;;;5.28;2.72;;;18.90;99.90;;;;;;5002697;28;20038;-78
2022/09/04 08:01:10;;;;;;;3.85;2.83;;;19.00;99.90;;;;;;4999819;28;20028;-76
2022/09/04 08:03:54;;;;;;;6.65;2.60;;;19.10;99.90;;;;;;5003922;28;20590;-76
2022/09/04 08:06:59;;;;;;;6.03;2.40;;;19.20;99.90;;;;;;5003126;28;20026;-75
2022/09/04 08:09:55;;;;;;;4.60;2.58;;;19.30;99.90;;;;;;5006808;28;20026;-77
2022/09/04 08:12:29;;;;;;;4.28;2.45;;;19.40;99.90;;;;;;5010541;28;20037;-77
2022/09/04 08:15:04;;;;;;;2.95;2.53;;;19.50;99.90;;;;;;5011658;28;20070;-76
2022/09/04 08:17:50;;;;;;;4.93;2.60;;;19.70;99.90;;;;;;5012167;28;20467;-77
2022/09/04 08:20:25;;;;;;;5.05;3.00;;;19.70;99.90;;;;;;5012035;28;20029;-77
2022/09/04 08:22:53;;;;;;;6.50;2.92;;;19.70;99.90;;;;;;5008623;28;20037;-76
2022/09/04 08:25:39;;;;;;;4.80;2.70;;;19.80;99.90;;;;;;5010096;28;20076;-75
2022/09/04 08:28:32;;;;;;;4.72;2.88;;;19.80;99.90;;;;;;5007025;28;20026;-75
2022/09/04 08:31:24;;;;;;;3.53;2.80;;;19.80;99.90;;;;;;5012101;28;20085;-75
2022/09/04 08:33:55;;;;;;;5.25;3.28;;;19.80;99.90;;;;;;4974662;28;20040;-75
2022/09/04 08:36:49;;;;;;;4.32;3.08;;;19.90;99.90;;;;;;5002481;28;20029;-76
2022/09/04 08:39:21;;;;;;;3.63;2.63;;;19.90;99.90;;;;;;4993844;28;20037;-77
2022/09/04 08:42:36;;;;;;;3.72;2.45;;;20.00;99.90;;;;;;4993066;28;20025;-75
2022/09/04 08:45:17;;;;;;;3.10;2.40;;;20.00;99.90;;;;;;4996865;28;20030;-75
2022/09/04 08:47:43;;;;;;;5.68;2.75;;;20.00;99.90;;;;;;5019198;28;20360;-82
2022/09/04 08:50:37;;;;;;;3.67;2.55;;;20.00;99.90;;;;;;5032589;28;20033;-83
2022/09/04 08:53:13;;;;;;;3.65;2.40;;;20.10;99.90;;;;;;5015781;28;20033;-83
2022/09/04 08:56:22;;;;;;;5.57;2.55;;;20.10;99.90;;;;;;5012083;28;20060;-81
2022/09/04 08:59:20;;;;;;;2.95;2.03;;;20.20;99.90;;;;;;5012891;28;20137;-83
2022/09/04 09:01:55;;;;;;;3.85;2.03;;;20.30;99.90;;;;;;5009657;28;20034;-83
2022/09/04 09:04:48;;;;;;;3.40;2.10;;;20.50;99.90;;;;;;5012044;28;20391;-79
2022/09/04 09:07:35;;;;;;;4.70;2.08;;;20.50;99.90;;;;;;5012335;28;20032;-86
2022/09/04 09:10:31;;;;;;;4.80;2.00;;;20.60;99.90;;;;;;4996066;28;20030;-83
2022/09/04 09:13:15;;;;;;;3.58;1.95;;;20.60;99.90;;;;;;5001322;28;20022;-86
2022/09/04 09:16:00;;;;;;;3.05;1.75;;;20.60;99.90;;;;;;5001431;28;20046;-86
2022/09/04 09:19:08;;;;;;;5.13;1.95;;;20.60;99.90;;;;;;4992795;28;20026;-86
2022/09/04 09:22:20;;;;;;;2.38;2.17;;;20.60;99.90;;;;;;5005432;28;20488;-89
2022/09/04 09:25:19;;;;;;;3.05;2.10;;;20.70;99.90;;;;;;4969962;28;20117;-82
2022/09/04 09:28:16;;;;;;;3.13;2.03;;;20.80;99.90;;;;;;4995742;28;20076;-77
2022/09/04 09:31:04;;;;;;;3.75;2.13;;;20.80;99.90;;;;;;5015472;28;20029;-83
2022/09/04 09:34:00;;;;;;;4.45;2.55;;;20.90;99.90;;;;;;4998498;28;20038;-83
2022/09/04 09:37:01;;;;;;;2.28;1.80;;;21.00;99.90;;;;;;5011244;28;20034;-77
2022/09/04 09:39:42;;;;;;;2.70;1.52;;;21.00;99.90;;;;;;5010707;28;20042;-81
2022/09/04 09:42:36;;;;;;;2.15;1.40;;;21.10;99.90;;;;;;5012190;28;20026;-77
2022/09/04 09:45:15;;;;;;;2.45;1.38;;;21.00;99.90;;;;;;5014837;28;20451;-76
2022/09/04 09:47:49;;;;;;;3.60;1.33;;;21.10;99.90;;;;;;5015563;28;20026;-78
2022/09/04 09:50:24;;;;;;;2.30;1.55;;;21.20;99.90;;;;;;5012778;28;20463;-78
2022/09/04 09:53:28;;;;;;;3.35;1.35;;;21.20;99.90;;;;;;5015580;28;20030;-78
2022/09/04 09:56:40;;;;;;;2.08;1.23;;;21.20;99.90;;;;;;5013335;28;20105;-76
2022/09/04 09:59:24;;;;;;;;;;;21.30;99.90;;;;;;5015187;28;20097;-77
2022/09/04 10:02:20;;;;;;;1.77;1.30;;;21.30;99.90;;;;;;5014266;28;19905;-77
2022/09/04 10:04:56;;;;;;;3.28;1.30;;;21.20;99.90;;;;;;5010777;28;20034;-78
2022/09/04 10:08:00;;;;;;;6.35;2.58;;;21.30;99.90;;;;;;5012594;28;20029;-77
2022/09/04 10:10:48;;;;;;;4.78;1.83;;;21.40;99.90;;;;;;5013126;28;20075;-78
2022/09/04 10:13:26;;;;;;;18.55;6.63;;;21.60;99.90;;;;;;5015236;28;20041;-77
2022/09/04 10:16:07;;;;;;;16.60;6.22;;;21.60;99.90;;;;;;5014191;28;20095;-79
2022/09/04 10:18:55;;;;;;;2.60;1.77;;;21.50;99.90;;;;;;5012854;28;20463;-78
2022/09/04 10:22:15;;;;;;;2.63;1.75;;;21.40;99.90;;;;;;5012766;28;20423;-76
2022/09/04 10:25:19;;;;;;;4.18;1.90;;;21.40;99.90;;;;;;4950414;29;20373;-78
2022/09/04 10:28:03;;;;;;;2.33;1.55;;;21.50;99.90;;;;;;5016047;28;20045;-78
2022/09/04 10:30:39;;;;;;;4.88;1.27;;;21.50;99.90;;;;;;5013867;28;20037;-78
2022/09/04 10:33:10;;;;;;;1.77;0.90;;;21.70;99.90;;;;;;5014309;28;20026;-78
2022/09/04 10:35:42;;;;;;;2.42;1.10;;;21.80;99.90;;;;;;5014601;28;20053;-78
2022/09/04 10:38:29;;;;;;;1.42;1.30;;;21.80;99.90;;;;;;5014557;28;20091;-78
2022/09/04 10:41:27;;;;;;;1.58;1.17;;;21.90;99.90;;;;;;5014704;28;20041;-78
2022/09/04 10:44:14;;;;;;;1.70;1.13;;;22.00;99.90;;;;;;5014684;28;20457;-78
2022/09/04 10:46:42;;;;;;;3.38;1.50;;;22.00;99.90;;;;;;5013720;28;20522;-78
2022/09/04 10:49:38;;;;;;;3.90;1.73;;;22.00;99.90;;;;;;5014343;28;20364;-78
2022/09/04 10:52:13;;;;;;;1.30;1.05;;;22.00;99.90;;;;;;5015048;28;20131;-77
2022/09/04 10:54:59;;;;;;;1.42;1.02;;;22.00;99.90;;;;;;5014850;28;20034;-78
2022/09/04 10:57:48;;;;;;;2.05;1.10;;;22.20;99.90;;;;;;5010968;28;20544;-80
2022/09/04 11:00:18;;;;;;;3.53;1.15;;;22.30;99.90;;;;;;4984674;28;20408;-80
2022/09/04 11:03:10;;;;;;;1.83;0.95;;;22.40;99.90;;;;;;4994297;28;20113;-78
2022/09/04 11:06:01;;;;;;;0.80;0.80;;;22.50;98.80;;;;;;4993935;28;20061;-78
2022/09/04 11:08:49;;;;;;;1.85;0.80;;;22.50;98.60;;;;;;4994344;28;20125;-78
2022/09/04 11:12:06;;;;;;;1.10;0.85;;;22.50;97.90;;;;;;4995594;28;20030;-78
2022/09/04 11:14:47;;;;;;;3.47;1.00;;;22.50;98.30;;;;;;4977955;28;20486;-77
2022/09/04 11:17:27;;;;;;;;;;;22.50;98.70;;;;;;4994752;28;20027;-77
2022/09/04 11:20:27;;;;;;;2.92;1.20;;;22.50;99.00;;;;;;4995387;28;19906;-79
2022/09/04 11:22:55;;;;;;;3.92;1.10;;;22.70;98.40;;;;;;5005890;28;20034;-77
2022/09/04 11:26:04;;;;;;;4.55;2.20;;;22.70;99.10;;;;;;5014453;28;20152;-78
2022/09/04 11:28:58;;;;;;;1.13;1.00;;;22.90;98.30;;;;;;5002154;28;20022;-80
2022/09/04 11:31:34;;;;;;;2.90;1.40;;;23.10;97.30;;;;;;4999067;28;20036;-79
2022/09/04 11:34:12;;;;;;;2.22;1.10;;;23.30;97.00;;;;;;5004308;28;20053;-79
2022/09/04 11:37:00;;;;;;;3.13;0.70;;;23.50;95.20;;;;;;5005033;28;20053;-79
2022/09/04 11:39:48;;;;;;;1.48;1.02;;;23.70;94.00;;;;;;4997871;28;20108;-76
2022/09/04 11:42:32;;;;;;;1.35;1.00;;;23.80;94.20;;;;;;4993102;28;20463;-76
2022/09/04 11:45:25;;;;;;;4.43;0.80;;;23.90;93.40;;;;;;5004806;28;20053;-76
2022/09/04 11:48:21;;;;;;;3.80;1.30;;;23.70;93.90;;;;;;5004096;28;20069;-76
2022/09/04 11:51:38;;;;;;;2.00;1.23;;;23.60;93.90;;;;;;5002023;28;20340;-75
2022/09/04 11:54:12;;;;;;;2.90;1.80;;;23.50;94.40;;;;;;4975911;28;20034;-75
2022/09/04 11:57:00;;;;;;;2.28;1.02;;;23.50;93.70;;;;;;5004084;28;20049;-76
2022/09/04 11:59:34;;;;;;;1.50;1.25;;;23.60;93.40;;;;;;5007497;28;20025;-75
2022/09/04 12:02:15;;;;;;;1.20;0.90;;;23.50;93.70;;;;;;4996331;28;20116;-75
2022/09/04 12:05:09;;;;;;;2.40;1.17;;;23.50;93.80;;;;;;5000293;28;20049;-75
2022/09/04 12:08:10;;;;;;;2.60;1.40;;;23.50;94.40;;;;;;5006829;28;20109;-75
2022/09/04 12:10:57;;;;;;;1.88;0.90;;;23.60;95.10;;;;;;4992960;28;20033;-75
2022/09/04 12:13:28;;;;;;;1.20;0.90;;;23.80;94.30;;;;;;4997542;28;20041;-75
2022/09/04 12:16:18;;;;;;;1.25;1.08;;;24.00;94.30;;;;;;5005476;28;20518;-75
2022/09/04 12:19:19;;;;;;;5.55;1.50;;;24.10;95.10;;;;;;4998749;28;20125;-77
2022/09/04 12:22:11;;;;;;;2.35;1.05;;;24.10;95.10;;;;;;4999348;28;20030;-87
2022/09/04 12:25:27;;;;;;;2.35;1.00;;;24.20;93.20;;;;;;4997971;28;20045;-78
2022/09/04 12:28:21;;;;;;;3.72;0.80;;;24.30;93.40;;;;;;4990528;28;20116;-77
2022/09/04 12:31:17;;;;;;;0.93;0.70;;;24.40;92.10;;;;;;5005893;28;20459;-77
2022/09/04 12:34:02;;;;;;;1.17;0.77;;;24.60;90.40;;;;;;5005901;28;20117;-76
2022/09/04 12:37:02;;;;;;;2.05;0.85;;;24.80;88.70;;;;;;5007784;28;20054;-75
2022/09/04 12:39:46;;;;;;;2.13;0.80;;;24.80;87.20;;;;;;4998211;28;20033;-77
2022/09/04 12:42:12;;;;;;;0.80;0.80;;;24.70;84.90;;;;;;5007010;28;20029;-77
2022/09/04 12:44:45;;;;;;;1.00;0.80;;;24.80;85.00;;;;;;5002114;28;20030;-78
2022/09/04 12:47:20;;;;;;;1.42;0.70;;;24.90;86.30;;;;;;4993380;28;20523;-77
2022/09/04 12:50:19;;;;;;;2.03;0.80;;;25.10;86.10;;;;;;4999580;28;20018;-75
2022/09/04 12:53:01;;;;;;;1.20;0.80;;;25.40;85.90;;;;;;4994885;28;20539;-75
2022/09/04 12:55:57;;;;;;;2.17;0.85;;;25.70;86.20;;;;;;5007653;28;20030;-75
2022/09/04 12:58:58;;;;;;;0.77;0.77;;;26.00;84.60;;;;;;5002026;28;20025;-77
2022/09/04 13:01:33;;;;;;;0.80;0.75;;;26.30;83.40;;;;;;5012401;28;20109;-78
2022/09/04 13:04:10;;;;;;;3.10;0.95;;;26.50;81.70;;;;;;5008837;28;20034;-76
2022/09/04 13:07:02;;;;;;;3.78;2.70;;;26.80;79.00;;;;;;4996402;28;20026;-76
2022/09/04 13:09:46;;;;;;;;;;;27.20;79.00;;;;;;5011636;28;20030;-77
2022/09/04 13:12:24;;;;;;;1.77;0.63;;;27.80;73.60;;;;;;4995551;28;19909;-75
2022/09/04 13:15:02;;;;;;;0.88;0.73;;;28.50;71.20;;;;;;5004741;28;20073;-76
2022/09/04 13:17:43;;;;;;;2.45;0.80;;;29.10;68.80;;;;;;5000032;28;20110;-80
2022/09/04 13:20:23;;;;;;;1.83;0.65;;;29.90;67.20;;;;;;5022891;28;20025;-81
2022/09/04 13:23:13;;;;;;;1.55;0.80;;;30.50;64.80;;;;;;5016040;28;20602;-81
2022/09/04 13:26:04;;;;;;;1.00;0.77;;;31.00;61.70;;;;;;5010673;28;20030;-79
2022/09/04 13:28:53;;;;;;;1.15;0.77;;;31.40;60.60;;;;;;5000584;28;20472;-79
2022/09/04 13:31:22;;;;;;;1.52;0.47;;;31.90;58.50;;;;;;5009905;28;20229;-80
2022/09/04 13:33:54;;;;;;;1.20;0.60;;;32.20;57.00;;;;;;5000824;28;20034;-81
2022/09/04 13:36:40;;;;;;;3.13;0.80;;;32.30;55.80;;;;;;5009720;28;20077;-81
2022/09/04 13:39:35;;;;;;;2.47;0.75;;;32.20;54.80;;;;;;4998750;28;20041;-80
2022/09/04 13:42:39;;;;;;;2.03;0.50;;;31.70;53.60;;;;;;4999816;28;20101;-81
2022/09/04 13:45:11;;;;;;;1.23;0.52;;;31.30;53.40;;;;;;4996388;28;20043;-82
2022/09/04 13:47:57;;;;;;;1.83;0.80;;;31.00;55.90;;;;;;4996012;28;20149;-87
2022/09/04 13:50:38;;;;;;;0.82;0.60;;;31.00;55.30;;;;;;5011659;28;20022;-83
2022/09/04 13:53:15;;;;;;;1.85;0.82;;;31.30;55.70;;;;;;5005682;28;20033;-83
2022/09/04 13:55:47;;;;;;;0.55;0.55;;;31.20;54.50;;;;;;4998430;28;20038;-87
2022/09/04 13:58:18;;;;;;;1.52;0.50;;;30.90;54.60;;;;;;4996837;28;20039;-84
2022/09/04 14:00:58;;;;;;;2.38;0.80;;;30.60;55.10;;;;;;4995553;28;20026;-82
2022/09/04 14:03:37;;;;;;;1.45;0.60;;;30.20;55.60;;;;;;4996934;28;20065;-82
2022/09/04 14:06:09;;;;;;;1.27;0.70;;;29.70;56.30;;;;;;5015234;28;20483;-80
2022/09/04 14:08:36;;;;;;;2.03;0.70;;;29.40;57.00;;;;;;5014470;28;20022;-82
2022/09/04 14:11:10;;;;;;;0.80;0.60;;;29.10;57.30;;;;;;5015600;28;20037;-82
2022/09/04 14:13:58;;;;;;;1.67;0.80;;;28.70;59.40;;;;;;5014556;28;20033;-77
2022/09/04 14:16:24;;;;;;;1.85;0.73;;;28.50;59.90;;;;;;5008008;28;20061;-77
2022/09/04 14:19:10;;;;;;;1.02;0.50;;;28.30;60.50;;;;;;5005749;28;20021;-80
2022/09/04 14:22:14;;;;;;;3.17;1.58;;;28.00;58.60;;;;;;4999766;28;20080;-87
2022/09/04 14:24:57;;;;;;;1.73;0.80;;;27.70;59.20;;;;;;5010362;28;20474;-82